Impacts TAF Board INFO
FOR SITUATIONAL AWARENESS. NOT TO BE USED FOR FLIGHT PLANNING PURPOSES.
IDs:

KPDX - Portland Intl Arpt, OR, US

Issued at 2102 UTC 19 Jul 2018
Updated at 2304 UTC 19 Jul 2018
Potential Impact None Slight Moderate High
Time<<20/12Z 20/13Z 20/14Z 20/15Z 20/16Z 20/17Z 20/18Z 20/19Z 20/20Z 20/21Z 20/22Z 20/23Z 21/00Z>>
Type PRVL PRVL PRVL PRVL PRVL PRVL
VIS >6 >6 >6 >6 >6 >6
CIG 50 50 50 50 50 50
Cover OVC OVC OVC OVC OVC OVC
FltCat VFR VFR VFR VFR VFR VFR
WX -- -- -- -- -- --
WDir 320 320 320 320 320 320
WSpd 9 9 9 9 9 9
WGst -- -- -- -- -- --

Raw TAF
KPDX 192102Z 1921/2018 32008KT P6SM OVC040
  FM192200 31010KT P6SM SCT050
  FM200600 32013KT P6SM SKC
  FM201000 32009KT P6SM SCT025 OVC050


METAR Board
Radar Display
Forecast Discussion

FOR SITUATIONAL AWARENESS. NOT TO BE USED FOR FLIGHT PLANNING PURPOSES.